Terminal Aerodrome Forecast
Issued by NWS

Home | Current Version | Previous Version | Text Only | Print | Product List | Glossary On
Versions: 1 2 3 4 5 6 7 8 9 10 11 12 13 14
000
FTUS46 KPDT 251122
TAFPSC
TAF
KPSC 251122Z 2512/2612 24007KT P6SM BKN080 OVC150
     FM251600 26007KT P6SM VCSH BKN050 OVC080
     FM260600 28008KT P6SM BKN100=

USA.gov is the U.S. government's official web portal to all federal, state and local government web resources and services.